Zlikha, Kazakhstan
Current Conditions -  °F | °C
As of 4:00 PM on Thursday 23 Oct 2014 (Local Time) from UAOO Reporting Station
Clear Clear  
Wind Chill: 57°   Ceiling: Unl
Heat Index: 57°   Visibility: 6mi
Dew Point: 41°   Wind: 7mph
Humidity: 55%   Direction: 260°W
Pressure: 30.06"   Gusts: NA
Location:  45.25°N, 67.07°E
Report Text: UAOO 231100Z 26003MPS 240V300 CAVOK 14/05 Q1018 R06/CLRD70NOSIG RMK QFE752/1002
Loading
Personal Weather Stations






























Interactive Weather Map
Tropical Storm Tracking
New forecast layout! Learn more

10-Day Weather Forecast

Advertisements
Track Severe Weather on mobile